sensor_id;sensor_type;location;lat;lon;timestamp;pressure;altitude;pressure_sealevel;temperature;humidity
12486;BME280;6307;46.804;11.580;2023-01-31T00:01:36;-21019.03;;;5.56;35.00
12486;BME280;6307;46.804;11.580;2023-01-31T00:04:05;-21026.41;;;5.80;34.83
12486;BME280;6307;46.804;11.580;2023-01-31T00:06:35;-21024.00;;;5.72;34.79
12486;BME280;6307;46.804;11.580;2023-01-31T00:09:08;-21021.44;;;5.64;34.82
12486;BME280;6307;46.804;11.580;2023-01-31T00:11:36;-21018.28;;;5.53;35.52
12486;BME280;6307;46.804;11.580;2023-01-31T00:14:04;-21016.03;;;5.46;35.30
12486;BME280;6307;46.804;11.580;2023-01-31T00:16:31;-21015.13;;;5.43;34.82
12486;BME280;6307;46.804;11.580;2023-01-31T00:18:57;-21014.09;;;5.39;34.96
12486;BME280;6307;46.804;11.580;2023-01-31T00:21:26;-21013.31;;;5.37;35.09
12486;BME280;6307;46.804;11.580;2023-01-31T00:23:54;-21016.34;;;5.47;35.02
12486;BME280;6307;46.804;11.580;2023-01-31T00:26:22;-21018.13;;;5.53;34.71
12486;BME280;6307;46.804;11.580;2023-01-31T00:28:53;-21013.16;;;5.36;34.80
12486;BME280;6307;46.804;11.580;2023-01-31T00:31:21;-21012.13;;;5.33;34.65
12486;BME280;6307;46.804;11.580;2023-01-31T00:33:50;-21011.97;;;5.32;34.88
12486;BME280;6307;46.804;11.580;2023-01-31T00:36:26;-21014.69;;;5.41;35.26
12486;BME280;6307;46.804;11.580;2023-01-31T00:38:56;-21012.72;;;5.35;35.11
12486;BME280;6307;46.804;11.580;2023-01-31T00:41:25;-21013.63;;;5.38;34.99
12486;BME280;6307;46.804;11.580;2023-01-31T00:43:53;-21010.16;;;5.26;34.97
12486;BME280;6307;46.804;11.580;2023-01-31T00:46:20;-21010.31;;;5.27;34.78
12486;BME280;6307;46.804;11.580;2023-01-31T00:48:46;-21017.69;;;5.51;34.61
12486;BME280;6307;46.804;11.580;2023-01-31T00:51:13;-21018.44;;;5.54;34.93
12486;BME280;6307;46.804;11.580;2023-01-31T00:53:40;-21017.53;;;5.51;34.89
12486;BME280;6307;46.804;11.580;2023-01-31T00:56:15;-21017.25;;;5.50;35.45
12486;BME280;6307;46.804;11.580;2023-01-31T00:58:43;-21010.31;;;5.27;34.58
12486;BME280;6307;46.804;11.580;2023-01-31T01:01:12;-21025.22;;;5.76;34.44
12486;BME280;6307;46.804;11.580;2023-01-31T01:03:41;-21027.03;;;5.82;34.61
12486;BME280;6307;46.804;11.580;2023-01-31T01:06:09;-21015.28;;;5.43;34.90
12486;BME280;6307;46.804;11.580;2023-01-31T01:08:37;-21016.19;;;5.46;34.54
12486;BME280;6307;46.804;11.580;2023-01-31T01:13:42;-21027.31;;;5.83;33.81
12486;BME280;6307;46.804;11.580;2023-01-31T01:16:23;-21028.22;;;5.86;33.83
12486;BME280;6307;46.804;11.580;2023-01-31T01:18:51;-21014.53;;;5.41;34.03
12486;BME280;6307;46.804;11.580;2023-01-31T01:21:23;-21020.84;;;5.62;32.98
12486;BME280;6307;46.804;11.580;2023-01-31T01:23:51;-21034.69;;;6.08;33.02
12486;BME280;6307;46.804;11.580;2023-01-31T01:26:25;-21032.44;;;6.00;33.21
12486;BME280;6307;46.804;11.580;2023-01-31T01:28:54;-21021.28;;;5.63;33.38
12486;BME280;6307;46.804;11.580;2023-01-31T01:31:21;-21028.22;;;5.86;33.59
12486;BME280;6307;46.804;11.580;2023-01-31T01:34:02;-21024.75;;;5.75;32.86
12486;BME280;6307;46.804;11.580;2023-01-31T01:36:37;-21030.34;;;5.93;33.37
12486;BME280;6307;46.804;11.580;2023-01-31T01:39:06;-21022.81;;;5.68;34.07
12486;BME280;6307;46.804;11.580;2023-01-31T01:41:34;-21026.88;;;5.82;32.87
12486;BME280;6307;46.804;11.580;2023-01-31T01:44:39;-21026.88;;;5.82;33.30
12486;BME280;6307;46.804;11.580;2023-01-31T01:47:25;-21025.81;;;5.78;33.14
12486;BME280;6307;46.804;11.580;2023-01-31T01:53:05;-21028.97;;;5.89;32.71
12486;BME280;6307;46.804;11.580;2023-01-31T01:55:49;-21028.84;;;5.88;31.93
12486;BME280;6307;46.804;11.580;2023-01-31T01:58:26;-21030.19;;;5.93;32.94
12486;BME280;6307;46.804;11.580;2023-01-31T02:00:56;-21025.50;;;5.77;31.20
12486;BME280;6307;46.804;11.580;2023-01-31T02:03:22;-21036.97;;;6.15;30.38
12486;BME280;6307;46.804;11.580;2023-01-31T02:05:51;-21049.75;;;6.58;30.58
12486;BME280;6307;46.804;11.580;2023-01-31T02:08:28;-21035.91;;;6.12;31.13
12486;BME280;6307;46.804;11.580;2023-01-31T02:11:01;-21029.88;;;5.92;32.20
12486;BME280;6307;46.804;11.580;2023-01-31T02:13:30;-21034.56;;;6.07;31.32
12486;BME280;6307;46.804;11.580;2023-01-31T02:15:56;-21033.78;;;6.05;31.94
12486;BME280;6307;46.804;11.580;2023-01-31T02:18:24;-21027.78;;;5.85;32.05
12486;BME280;6307;46.804;11.580;2023-01-31T02:27:04;-21030.78;;;5.95;31.37
12486;BME280;6307;46.804;11.580;2023-01-31T02:35:31;-21039.81;;;6.25;30.05
12486;BME280;6307;46.804;11.580;2023-01-31T02:40:55;-21033.03;;;6.02;30.22
12486;BME280;6307;46.804;11.580;2023-01-31T02:43:50;-21033.66;;;6.04;30.34
12486;BME280;6307;46.804;11.580;2023-01-31T02:49:23;-21034.09;;;6.06;29.92
12486;BME280;6307;46.804;11.580;2023-01-31T02:57:57;-21036.06;;;6.12;30.00
12486;BME280;6307;46.804;11.580;2023-01-31T03:00:28;-21033.78;;;6.05;29.60
12486;BME280;6307;46.804;11.580;2023-01-31T03:02:57;-21047.03;;;6.49;29.22
12486;BME280;6307;46.804;11.580;2023-01-31T03:05:23;-21038.91;;;6.22;29.99
12486;BME280;6307;46.804;11.580;2023-01-31T03:07:53;-21030.94;;;5.95;29.88
12486;BME280;6307;46.804;11.580;2023-01-31T03:16:48;-21022.34;;;5.67;29.84
12486;BME280;6307;46.804;11.580;2023-01-31T03:22:34;-21032.59;;;6.01;29.58
12486;BME280;6307;46.804;11.580;2023-01-31T03:25:09;-21040.56;;;6.27;29.62
12486;BME280;6307;46.804;11.580;2023-01-31T03:27:43;-21025.97;;;5.79;29.50
12486;BME280;6307;46.804;11.580;2023-01-31T03:30:15;-21037.41;;;6.17;29.72
12486;BME280;6307;46.804;11.580;2023-01-31T03:32:55;-21035.31;;;6.10;29.46
12486;BME280;6307;46.804;11.580;2023-01-31T03:35:28;-21032.75;;;6.01;29.82
12486;BME280;6307;46.804;11.580;2023-01-31T03:38:14;-21037.72;;;6.18;29.90
12486;BME280;6307;46.804;11.580;2023-01-31T03:40:56;-21028.53;;;5.87;29.76
12486;BME280;6307;46.804;11.580;2023-01-31T03:44:12;-21032.75;;;6.01;29.77
12486;BME280;6307;46.804;11.580;2023-01-31T03:46:53;-21024.00;;;5.72;30.07
12486;BME280;6307;46.804;11.580;2023-01-31T03:49:28;-21029.72;;;5.91;29.54
12486;BME280;6307;46.804;11.580;2023-01-31T03:52:04;-21035.00;;;6.09;29.11
12486;BME280;6307;46.804;11.580;2023-01-31T03:54:38;-21022.97;;;5.69;29.26
12486;BME280;6307;46.804;11.580;2023-01-31T03:57:35;-21029.28;;;5.90;29.03
12486;BME280;6307;46.804;11.580;2023-01-31T04:00:08;-21027.78;;;5.85;29.49
12486;BME280;6307;46.804;11.580;2023-01-31T04:02:38;-21033.19;;;6.03;28.88
12486;BME280;6307;46.804;11.580;2023-01-31T04:05:10;-21028.97;;;5.89;28.81
12486;BME280;6307;46.804;11.580;2023-01-31T04:07:41;-21036.81;;;6.15;28.85
12486;BME280;6307;46.804;11.580;2023-01-31T04:10:15;-21038.75;;;6.21;28.77
12486;BME280;6307;46.804;11.580;2023-01-31T04:12:44;-21036.50;;;6.14;28.85
12486;BME280;6307;46.804;11.580;2023-01-31T04:15:11;-21026.41;;;5.80;29.07
12486;BME280;6307;46.804;11.580;2023-01-31T04:17:38;-21040.56;;;6.27;28.21
12486;BME280;6307;46.804;11.580;2023-01-31T04:20:05;-21039.22;;;6.23;28.20
12486;BME280;6307;46.804;11.580;2023-01-31T04:22:32;-21033.50;;;6.04;27.75
12486;BME280;6307;46.804;11.580;2023-01-31T04:24:58;-21040.72;;;6.28;27.80
12486;BME280;6307;46.804;11.580;2023-01-31T04:27:24;-21038.16;;;6.19;27.90
12486;BME280;6307;46.804;11.580;2023-01-31T04:29:50;-21040.72;;;6.28;27.86
12486;BME280;6307;46.804;11.580;2023-01-31T04:32:16;-21034.25;;;6.06;28.22
12486;BME280;6307;46.804;11.580;2023-01-31T04:34:43;-21031.09;;;5.96;27.85
12486;BME280;6307;46.804;11.580;2023-01-31T04:37:09;-21041.63;;;6.31;27.76
12486;BME280;6307;46.804;11.580;2023-01-31T04:39:35;-21035.31;;;6.10;27.05
12486;BME280;6307;46.804;11.580;2023-01-31T04:42:01;-21038.75;;;6.21;26.92
12486;BME280;6307;46.804;11.580;2023-01-31T04:44:27;-21049.44;;;6.57;27.07
12486;BME280;6307;46.804;11.580;2023-01-31T04:46:53;-21045.53;;;6.44;27.05
12486;BME280;6307;46.804;11.580;2023-01-31T04:49:19;-21036.34;;;6.13;27.68
12486;BME280;6307;46.804;11.580;2023-01-31T04:51:45;-21038.75;;;6.21;27.86
12486;BME280;6307;46.804;11.580;2023-01-31T04:54:11;-21038.00;;;6.19;27.18
12486;BME280;6307;46.804;11.580;2023-01-31T04:56:38;-21035.91;;;6.12;27.95
12486;BME280;6307;46.804;11.580;2023-01-31T04:59:04;-21037.09;;;6.16;26.94
12486;BME280;6307;46.804;11.580;2023-01-31T05:01:30;-21037.25;;;6.16;27.02
12486;BME280;6307;46.804;11.580;2023-01-31T05:03:56;-21030.78;;;5.95;28.14
12486;BME280;6307;46.804;11.580;2023-01-31T05:06:22;-21031.53;;;5.97;28.50
12486;BME280;6307;46.804;11.580;2023-01-31T05:08:48;-21028.97;;;5.89;28.85
12486;BME280;6307;46.804;11.580;2023-01-31T05:11:17;-21032.91;;;6.02;28.44
12486;BME280;6307;46.804;11.580;2023-01-31T05:13:43;-21026.56;;;5.81;28.70
12486;BME280;6307;46.804;11.580;2023-01-31T05:16:10;-21022.50;;;5.67;29.00
12486;BME280;6307;46.804;11.580;2023-01-31T05:18:37;-21028.69;;;5.88;29.25
12486;BME280;6307;46.804;11.580;2023-01-31T05:21:05;-21030.50;;;5.94;29.34
12486;BME280;6307;46.804;11.580;2023-01-31T05:23:32;-21019.94;;;5.59;29.64
12486;BME280;6307;46.804;11.580;2023-01-31T05:25:59;-21021.16;;;5.63;29.20
12486;BME280;6307;46.804;11.580;2023-01-31T05:28:25;-21019.50;;;5.57;29.39
12486;BME280;6307;46.804;11.580;2023-01-31T05:30:52;-21021.91;;;5.65;29.11
12486;BME280;6307;46.804;11.580;2023-01-31T05:33:25;-21020.25;;;5.60;29.53
12486;BME280;6307;46.804;11.580;2023-01-31T05:35:51;-21018.75;;;5.55;29.83
12486;BME280;6307;46.804;11.580;2023-01-31T05:38:18;-21024.75;;;5.75;30.37
12486;BME280;6307;46.804;11.580;2023-01-31T05:40:44;-21017.53;;;5.51;30.39
12486;BME280;6307;46.804;11.580;2023-01-31T05:43:11;-21017.25;;;5.50;29.58
12486;BME280;6307;46.804;11.580;2023-01-31T05:45:37;-21016.34;;;5.47;29.92
12486;BME280;6307;46.804;11.580;2023-01-31T05:48:03;-21015.44;;;5.44;29.66
12486;BME280;6307;46.804;11.580;2023-01-31T05:50:29;-21010.16;;;5.26;29.85
12486;BME280;6307;46.804;11.580;2023-01-31T05:52:57;-21015.13;;;5.43;29.50
12486;BME280;6307;46.804;11.580;2023-01-31T05:55:24;-21014.09;;;5.39;29.93
12486;BME280;6307;46.804;11.580;2023-01-31T05:57:52;-21011.53;;;5.31;30.06
12486;BME280;6307;46.804;11.580;2023-01-31T06:00:19;-21015.59;;;5.44;30.06
12486;BME280;6307;46.804;11.580;2023-01-31T06:02:46;-21009.25;;;5.23;30.38
12486;BME280;6307;46.804;11.580;2023-01-31T06:05:13;-21008.06;;;5.19;30.01
12486;BME280;6307;46.804;11.580;2023-01-31T06:07:40;-21007.59;;;5.18;30.23
12486;BME280;6307;46.804;11.580;2023-01-31T06:10:08;-21009.56;;;5.24;30.12
12486;BME280;6307;46.804;11.580;2023-01-31T06:12:35;-21006.69;;;5.15;29.66
12486;BME280;6307;46.804;11.580;2023-01-31T06:15:02;-21013.16;;;5.36;29.51
12486;BME280;6307;46.804;11.580;2023-01-31T06:17:29;-21014.97;;;5.42;29.94
12486;BME280;6307;46.804;11.580;2023-01-31T06:19:55;-21011.81;;;5.32;29.94
12486;BME280;6307;46.804;11.580;2023-01-31T06:22:21;-21007.00;;;5.16;30.68
12486;BME280;6307;46.804;11.580;2023-01-31T06:24:47;-21008.66;;;5.21;29.85
12486;BME280;6307;46.804;11.580;2023-01-31T06:27:13;-21015.13;;;5.43;29.93
12486;BME280;6307;46.804;11.580;2023-01-31T06:29:39;-21012.56;;;5.34;30.47
12486;BME280;6307;46.804;11.580;2023-01-31T06:32:05;-21003.53;;;5.04;30.08
12486;BME280;6307;46.804;11.580;2023-01-31T06:34:32;-21008.97;;;5.22;30.07
12486;BME280;6307;46.804;11.580;2023-01-31T06:36:58;-21010.00;;;5.26;30.24
12486;BME280;6307;46.804;11.580;2023-01-31T06:39:24;-21002.19;;;5.00;30.04
12486;BME280;6307;46.804;11.580;2023-01-31T06:41:50;-21010.00;;;5.26;30.00
12486;BME280;6307;46.804;11.580;2023-01-31T06:44:17;-21009.41;;;5.24;29.68
12486;BME280;6307;46.804;11.580;2023-01-31T06:46:43;-21002.63;;;5.01;29.78
12486;BME280;6307;46.804;11.580;2023-01-31T06:49:09;-21012.28;;;5.33;29.34
12486;BME280;6307;46.804;11.580;2023-01-31T06:51:35;-21005.03;;;5.09;29.25
12486;BME280;6307;46.804;11.580;2023-01-31T06:54:01;-21005.19;;;5.10;29.68
12486;BME280;6307;46.804;11.580;2023-01-31T06:56:27;-21016.03;;;5.46;29.55
12486;BME280;6307;46.804;11.580;2023-01-31T06:58:53;-21013.03;;;5.36;29.62
12486;BME280;6307;46.804;11.580;2023-01-31T07:01:19;-21018.28;;;5.53;29.79
12486;BME280;6307;46.804;11.580;2023-01-31T07:03:48;-21009.09;;;5.23;29.11
12486;BME280;6307;46.804;11.580;2023-01-31T07:06:14;-21012.72;;;5.35;29.26
12486;BME280;6307;46.804;11.580;2023-01-31T07:08:44;-21008.66;;;5.21;30.15
12486;BME280;6307;46.804;11.580;2023-01-31T07:11:10;-21010.91;;;5.29;30.37
12486;BME280;6307;46.804;11.580;2023-01-31T07:13:36;-21016.94;;;5.49;29.61
12486;BME280;6307;46.804;11.580;2023-01-31T07:16:02;-21018.00;;;5.52;29.82
12486;BME280;6307;46.804;11.580;2023-01-31T07:18:29;-21016.03;;;5.46;30.12
12486;BME280;6307;46.804;11.580;2023-01-31T07:20:55;-21010.00;;;5.26;30.42
12486;BME280;6307;46.804;11.580;2023-01-31T07:23:21;-21019.81;;;5.58;29.05
12486;BME280;6307;46.804;11.580;2023-01-31T07:25:47;-21020.09;;;5.59;30.33
12486;BME280;6307;46.804;11.580;2023-01-31T07:28:13;-21011.38;;;5.30;30.10
12486;BME280;6307;46.804;11.580;2023-01-31T07:30:39;-21018.75;;;5.55;29.65
12486;BME280;6307;46.804;11.580;2023-01-31T07:33:09;-21011.66;;;5.31;30.33
12486;BME280;6307;46.804;11.580;2023-01-31T07:35:35;-21008.50;;;5.21;30.64
12486;BME280;6307;46.804;11.580;2023-01-31T07:38:01;-21009.09;;;5.23;31.04
12486;BME280;6307;46.804;11.580;2023-01-31T07:40:27;-21009.41;;;5.24;30.87
12486;BME280;6307;46.804;11.580;2023-01-31T07:42:59;-21009.72;;;5.25;31.64
12486;BME280;6307;46.804;11.580;2023-01-31T07:45:26;-21008.34;;;5.20;31.27
12486;BME280;6307;46.804;11.580;2023-01-31T07:47:56;-21015.13;;;5.43;31.21
12486;BME280;6307;46.804;11.580;2023-01-31T07:50:23;-21014.38;;;5.40;31.19
12486;BME280;6307;46.804;11.580;2023-01-31T07:52:51;-21008.81;;;5.22;31.28
12486;BME280;6307;46.804;11.580;2023-01-31T07:55:17;-21013.31;;;5.37;30.69
12486;BME280;6307;46.804;11.580;2023-01-31T07:57:43;-21017.84;;;5.52;31.12
12486;BME280;6307;46.804;11.580;2023-01-31T08:00:10;-21014.09;;;5.39;31.56
12486;BME280;6307;46.804;11.580;2023-01-31T08:02:56;-21007.16;;;5.16;31.58
12486;BME280;6307;46.804;11.580;2023-01-31T08:05:44;-21011.53;;;5.31;31.28
12486;BME280;6307;46.804;11.580;2023-01-31T08:08:11;-21014.38;;;5.40;31.50
12486;BME280;6307;46.804;11.580;2023-01-31T08:10:37;-21014.53;;;5.41;30.95
12486;BME280;6307;46.804;11.580;2023-01-31T08:13:04;-21010.75;;;5.28;30.86
12486;BME280;6307;46.804;11.580;2023-01-31T08:15:32;-21019.03;;;5.56;31.71
12486;BME280;6307;46.804;11.580;2023-01-31T08:17:58;-21014.22;;;5.40;31.80
12486;BME280;6307;46.804;11.580;2023-01-31T08:20:24;-21015.59;;;5.44;31.77
12486;BME280;6307;46.804;11.580;2023-01-31T08:22:50;-21015.59;;;5.44;31.77
12486;BME280;6307;46.804;11.580;2023-01-31T08:25:16;-21012.28;;;5.33;31.61
12486;BME280;6307;46.804;11.580;2023-01-31T08:27:42;-21011.81;;;5.32;31.73
12486;BME280;6307;46.804;11.580;2023-01-31T08:30:09;-21009.25;;;5.23;31.53
12486;BME280;6307;46.804;11.580;2023-01-31T08:32:36;-21010.63;;;5.28;31.39
12486;BME280;6307;46.804;11.580;2023-01-31T08:35:02;-21017.84;;;5.52;31.28
12486;BME280;6307;46.804;11.580;2023-01-31T08:37:28;-21009.41;;;5.24;31.51
12486;BME280;6307;46.804;11.580;2023-01-31T08:39:55;-21021.16;;;5.63;30.93
12486;BME280;6307;46.804;11.580;2023-01-31T08:42:21;-21021.59;;;5.64;31.06
12486;BME280;6307;46.804;11.580;2023-01-31T08:44:47;-21017.69;;;5.51;31.06
12486;BME280;6307;46.804;11.580;2023-01-31T08:47:13;-21014.38;;;5.40;31.25
12486;BME280;6307;46.804;11.580;2023-01-31T08:49:39;-21024.47;;;5.74;30.56
12486;BME280;6307;46.804;11.580;2023-01-31T08:52:05;-21021.16;;;5.63;30.59
12486;BME280;6307;46.804;11.580;2023-01-31T08:54:32;-21026.88;;;5.82;30.52
12486;BME280;6307;46.804;11.580;2023-01-31T08:56:58;-21030.78;;;5.95;30.69
12486;BME280;6307;46.804;11.580;2023-01-31T08:59:24;-21028.97;;;5.89;30.88
12486;BME280;6307;46.804;11.580;2023-01-31T09:01:50;-21025.22;;;5.76;30.25
12486;BME280;6307;46.804;11.580;2023-01-31T09:04:16;-21028.69;;;5.88;29.79
12486;BME280;6307;46.804;11.580;2023-01-31T09:06:42;-21021.75;;;5.65;30.47
12486;BME280;6307;46.804;11.580;2023-01-31T09:09:08;-21020.56;;;5.61;30.30
12486;BME280;6307;46.804;11.580;2023-01-31T09:11:35;-21026.41;;;5.80;29.89
12486;BME280;6307;46.804;11.580;2023-01-31T09:14:01;-21026.28;;;5.80;29.87
12486;BME280;6307;46.804;11.580;2023-01-31T09:16:27;-21028.09;;;5.86;30.15
12486;BME280;6307;46.804;11.580;2023-01-31T09:18:53;-21036.50;;;6.14;30.10
12486;BME280;6307;46.804;11.580;2023-01-31T09:21:22;-21028.22;;;5.86;30.28
12486;BME280;6307;46.804;11.580;2023-01-31T09:23:54;-21039.50;;;6.24;30.04
12486;BME280;6307;46.804;11.580;2023-01-31T09:26:22;-21035.31;;;6.10;30.03
12486;BME280;6307;46.804;11.580;2023-01-31T09:28:48;-21031.09;;;5.96;30.49
12486;BME280;6307;46.804;11.580;2023-01-31T09:31:17;-21034.84;;;6.08;30.33
12486;BME280;6307;46.804;11.580;2023-01-31T09:33:47;-21040.41;;;6.27;30.18
12486;BME280;6307;46.804;11.580;2023-01-31T09:36:18;-21035.31;;;6.10;30.12
12486;BME280;6307;46.804;11.580;2023-01-31T09:38:46;-21041.31;;;6.30;31.49
12486;BME280;6307;46.804;11.580;2023-01-31T09:44:36;-21040.72;;;6.28;30.55
12486;BME280;6307;46.804;11.580;2023-01-31T09:49:47;-21047.63;;;6.51;29.87
12486;BME280;6307;46.804;11.580;2023-01-31T09:52:16;-21040.41;;;6.27;29.88
12486;BME280;6307;46.804;11.580;2023-01-31T09:54:44;-21048.25;;;6.53;30.83
12486;BME280;6307;46.804;11.580;2023-01-31T09:57:29;-21049.44;;;6.57;29.23
12486;BME280;6307;46.804;11.580;2023-01-31T10:00:26;-21049.75;;;6.58;29.63
12486;BME280;6307;46.804;11.580;2023-01-31T10:03:15;-21051.25;;;6.63;29.31
12486;BME280;6307;46.804;11.580;2023-01-31T10:09:05;-21049.00;;;6.55;29.05
12486;BME280;6307;46.804;11.580;2023-01-31T10:11:43;-21061.16;;;6.96;27.85
12486;BME280;6307;46.804;11.580;2023-01-31T10:14:41;-21054.72;;;6.74;28.46
12486;BME280;6307;46.804;11.580;2023-01-31T10:22:51;-21057.25;;;6.83;27.65
12486;BME280;6307;46.804;11.580;2023-01-31T10:25:26;-21065.97;;;7.12;27.77
12486;BME280;6307;46.804;11.580;2023-01-31T10:28:38;-21058.63;;;6.87;27.26
12486;BME280;6307;46.804;11.580;2023-01-31T10:31:32;-21066.13;;;7.12;26.75
12486;BME280;6307;46.804;11.580;2023-01-31T10:34:29;-21067.63;;;7.17;26.95
12486;BME280;6307;46.804;11.580;2023-01-31T10:37:32;-21064.78;;;7.08;27.17
12486;BME280;6307;46.804;11.580;2023-01-31T10:42:50;-21062.38;;;7.00;27.08
12486;BME280;6307;46.804;11.580;2023-01-31T10:45:24;-21069.44;;;7.23;26.46
12486;BME280;6307;46.804;11.580;2023-01-31T10:48:19;-21075.75;;;7.44;27.17
12486;BME280;6307;46.804;11.580;2023-01-31T10:51:20;-21081.31;;;7.62;27.07
12486;BME280;6307;46.804;11.580;2023-01-31T10:56:46;-21077.84;;;7.51;26.26
12486;BME280;6307;46.804;11.580;2023-01-31T11:01:55;-21075.16;;;7.42;24.66
12486;BME280;6307;46.804;11.580;2023-01-31T11:04:38;-21084.00;;;7.71;25.03
12486;BME280;6307;46.804;11.580;2023-01-31T11:07:06;-21078.16;;;7.52;26.95
12486;BME280;6307;46.804;11.580;2023-01-31T11:09:39;-21071.09;;;7.28;25.18
12486;BME280;6307;46.804;11.580;2023-01-31T11:12:54;-21085.97;;;7.78;24.96
12486;BME280;6307;46.804;11.580;2023-01-31T11:15:35;-21091.22;;;7.95;25.30
12486;BME280;6307;46.804;11.580;2023-01-31T11:18:04;-21091.38;;;7.96;25.14
12486;BME280;6307;46.804;11.580;2023-01-31T11:20:34;-21085.06;;;7.75;24.59
12486;BME280;6307;46.804;11.580;2023-01-31T11:23:12;-21082.22;;;7.65;23.84
12486;BME280;6307;46.804;11.580;2023-01-31T11:25:47;-21094.38;;;8.06;23.62
12486;BME280;6307;46.804;11.580;2023-01-31T11:28:36;-21096.34;;;8.12;23.98
12486;BME280;6307;46.804;11.580;2023-01-31T11:31:20;-21092.59;;;8.00;26.42
12486;BME280;6307;46.804;11.580;2023-01-31T11:33:58;-21077.72;;;7.50;24.73
12486;BME280;6307;46.804;11.580;2023-01-31T11:36:32;-21088.22;;;7.85;24.17
12486;BME280;6307;46.804;11.580;2023-01-31T11:42:12;-21097.25;;;8.15;24.87
12486;BME280;6307;46.804;11.580;2023-01-31T11:45:16;-21085.53;;;7.76;24.25
12486;BME280;6307;46.804;11.580;2023-01-31T11:47:50;-21087.03;;;7.81;23.48
12486;BME280;6307;46.804;11.580;2023-01-31T11:56:24;-21106.09;;;8.45;22.58
12486;BME280;6307;46.804;11.580;2023-01-31T11:58:55;-21101.44;;;8.29;21.49
12486;BME280;6307;46.804;11.580;2023-01-31T12:01:27;-21106.56;;;8.46;21.91
12486;BME280;6307;46.804;11.580;2023-01-31T12:03:57;-21110.47;;;8.59;21.76
12486;BME280;6307;46.804;11.580;2023-01-31T12:06:39;-21108.81;;;8.54;20.10
12486;BME280;6307;46.804;11.580;2023-01-31T12:09:26;-21105.97;;;8.44;21.83
12486;BME280;6307;46.804;11.580;2023-01-31T12:11:55;-21107.00;;;8.48;21.35
12486;BME280;6307;46.804;11.580;2023-01-31T12:14:25;-21116.31;;;8.79;21.27
12486;BME280;6307;46.804;11.580;2023-01-31T12:17:04;-21107.31;;;8.49;22.04
12486;BME280;6307;46.804;11.580;2023-01-31T12:28:02;-21108.06;;;8.51;20.88
12486;BME280;6307;46.804;11.580;2023-01-31T12:34:16;-21119.47;;;8.89;20.96
12486;BME280;6307;46.804;11.580;2023-01-31T12:37:34;-21114.97;;;8.74;20.83
12486;BME280;6307;46.804;11.580;2023-01-31T12:40:35;-21128.47;;;9.19;18.29
12486;BME280;6307;46.804;11.580;2023-01-31T12:46:16;-21138.53;;;9.53;20.42
12486;BME280;6307;46.804;11.580;2023-01-31T12:51:57;-21114.97;;;8.74;20.58
12486;BME280;6307;46.804;11.580;2023-01-31T13:03:21;-21145.28;;;9.75;18.28
12486;BME280;6307;46.804;11.580;2023-01-31T13:06:07;-21145.44;;;9.76;17.17
12486;BME280;6307;46.804;11.580;2023-01-31T13:08:53;-21148.28;;;9.85;17.35
12486;BME280;6307;46.804;11.580;2023-01-31T13:11:30;-21150.09;;;9.91;18.24
12486;BME280;6307;46.804;11.580;2023-01-31T13:14:04;-21146.34;;;9.79;20.18
12486;BME280;6307;46.804;11.580;2023-01-31T13:16:38;-21131.78;;;9.30;22.51
12486;BME280;6307;46.804;11.580;2023-01-31T13:19:21;-21128.03;;;9.18;21.83
12486;BME280;6307;46.804;11.580;2023-01-31T13:22:11;-21137.63;;;9.50;16.83
12486;BME280;6307;46.804;11.580;2023-01-31T13:24:46;-21148.44;;;9.86;17.07
12486;BME280;6307;46.804;11.580;2023-01-31T13:27:22;-21145.59;;;9.76;15.86
12486;BME280;6307;46.804;11.580;2023-01-31T13:30:00;-21155.78;;;10.10;18.10
12486;BME280;6307;46.804;11.580;2023-01-31T13:32:38;-21157.00;;;10.14;19.46
12486;BME280;6307;46.804;11.580;2023-01-31T13:38:16;-21160.28;;;10.25;17.20
12486;BME280;6307;46.804;11.580;2023-01-31T13:40:51;-21154.44;;;10.06;16.00
12486;BME280;6307;46.804;11.580;2023-01-31T13:43:20;-21161.19;;;10.28;16.72
12486;BME280;6307;46.804;11.580;2023-01-31T13:45:51;-21166.00;;;10.44;19.02
12486;BME280;6307;46.804;11.580;2023-01-31T13:51:08;-21168.25;;;10.52;18.50
12486;BME280;6307;46.804;11.580;2023-01-31T13:54:10;-21167.03;;;10.48;18.96
12486;BME280;6307;46.804;11.580;2023-01-31T13:56:53;-21169.28;;;10.55;18.74
12486;BME280;6307;46.804;11.580;2023-01-31T13:59:30;-21162.25;;;10.32;18.00
12486;BME280;6307;46.804;11.580;2023-01-31T14:02:00;-21164.78;;;10.40;20.87
12486;BME280;6307;46.804;11.580;2023-01-31T14:04:34;-21170.78;;;10.60;18.39
12486;BME280;6307;46.804;11.580;2023-01-31T14:09:36;-21171.84;;;10.64;19.39
12486;BME280;6307;46.804;11.580;2023-01-31T14:17:56;-21171.25;;;10.62;18.75
12486;BME280;6307;46.804;11.580;2023-01-31T14:23:30;-21170.19;;;10.58;18.53
12486;BME280;6307;46.804;11.580;2023-01-31T14:29:14;-21151.00;;;9.94;19.44
12486;BME280;6307;46.804;11.580;2023-01-31T14:31:44;-21157.28;;;10.15;20.43
12486;BME280;6307;46.804;11.580;2023-01-31T14:34:19;-21153.53;;;10.03;20.39
12486;BME280;6307;46.804;11.580;2023-01-31T14:40:39;-21136.44;;;9.46;23.62
12486;BME280;6307;46.804;11.580;2023-01-31T14:43:52;-21137.03;;;9.48;20.35
12486;BME280;6307;46.804;11.580;2023-01-31T14:49:20;-21139.59;;;9.56;21.93
12486;BME280;6307;46.804;11.580;2023-01-31T14:52:31;-21130.13;;;9.25;22.41
12486;BME280;6307;46.804;11.580;2023-01-31T14:55:35;-21128.03;;;9.18;24.06
12486;BME280;6307;46.804;11.580;2023-01-31T14:58:12;-21128.63;;;9.20;24.82
12486;BME280;6307;46.804;11.580;2023-01-31T15:00:54;-21120.66;;;8.93;21.40
12486;BME280;6307;46.804;11.580;2023-01-31T15:06:12;-21112.56;;;8.66;26.79
12486;BME280;6307;46.804;11.580;2023-01-31T15:08:49;-21110.47;;;8.59;22.38
12486;BME280;6307;46.804;11.580;2023-01-31T15:11:37;-21108.81;;;8.54;25.51
12486;BME280;6307;46.804;11.580;2023-01-31T15:14:38;-21110.47;;;8.59;23.60
12486;BME280;6307;46.804;11.580;2023-01-31T15:17:16;-21104.00;;;8.38;25.74
12486;BME280;6307;46.804;11.580;2023-01-31T15:19:56;-21099.34;;;8.22;23.30
12486;BME280;6307;46.804;11.580;2023-01-31T15:22:43;-21094.53;;;8.06;26.53
12486;BME280;6307;46.804;11.580;2023-01-31T15:25:25;-21087.91;;;7.84;26.78
12486;BME280;6307;46.804;11.580;2023-01-31T15:27:58;-21090.94;;;7.94;23.71
12486;BME280;6307;46.804;11.580;2023-01-31T15:30:28;-21088.97;;;7.88;26.86
12486;BME280;6307;46.804;11.580;2023-01-31T15:33:37;-21106.09;;;8.45;21.10
12486;BME280;6307;46.804;11.580;2023-01-31T15:36:31;-21103.56;;;8.36;26.46
12486;BME280;6307;46.804;11.580;2023-01-31T15:39:19;-21091.53;;;7.96;24.44